Time;durP1;ratioP1;P1;durP2;ratioP2;P2;SDS_P1;SDS_P2;PMS_P1;PMS_P2;Temp;Humidity;BMP_temperature;BMP_pressure;BME280_temperature;BME280_humidity;BME280_pressure;Samples;Min_cycle;Max_cycle;Signal;HPM_P1;HPM_P2
2023/05/20 00:00:07;;;;;;;22.85;6.95;;;14.20;99.90;;;;;;5050279;28;20040;-74
2023/05/20 00:02:33;;;;;;;16.40;6.30;;;14.20;99.90;;;;;;5049863;28;20048;-72
2023/05/20 00:04:58;;;;;;;21.63;6.93;;;14.10;99.90;;;;;;5048993;28;20063;-71
2023/05/20 00:07:24;;;;;;;22.45;7.18;;;14.10;99.90;;;;;;5049691;28;20029;-72
2023/05/20 00:09:50;;;;;;;18.33;5.90;;;14.10;99.90;;;;;;5049056;28;20103;-72
2023/05/20 00:12:16;;;;;;;17.80;5.75;;;14.10;99.90;;;;;;5049528;28;20028;-72
2023/05/20 00:14:42;;;;;;;22.25;6.43;;;14.00;99.90;;;;;;5048374;28;20025;-73
2023/05/20 00:17:08;;;;;;;16.58;5.85;;;14.00;99.90;;;;;;5050011;28;20039;-72
2023/05/20 00:19:34;;;;;;;18.13;6.45;;;14.00;99.90;;;;;;5049546;28;20033;-72
2023/05/20 00:22:00;;;;;;;19.30;6.65;;;14.00;99.90;;;;;;5049110;28;20021;-72
2023/05/20 00:24:26;;;;;;;21.70;6.80;;;14.00;99.90;;;;;;5049625;28;20104;-72
2023/05/20 00:26:52;;;;;;;15.05;5.72;;;14.00;99.90;;;;;;5052949;28;20140;-72
2023/05/20 00:29:19;;;;;;;14.63;6.55;;;14.00;99.90;;;;;;5053245;28;20053;-72
2023/05/20 00:31:45;;;;;;;14.90;5.50;;;14.00;99.90;;;;;;5052543;28;20104;-73
2023/05/20 00:34:11;;;;;;;20.85;7.22;;;14.00;99.90;;;;;;5053005;28;20064;-72
2023/05/20 00:36:37;;;;;;;13.15;5.85;;;13.90;99.90;;;;;;5053167;28;20035;-74
2023/05/20 00:39:03;;;;;;;15.95;6.90;;;13.90;99.90;;;;;;5052819;28;20032;-72
2023/05/20 00:41:28;;;;;;;19.00;6.53;;;13.90;99.90;;;;;;5052103;28;20108;-71
2023/05/20 00:43:55;;;;;;;17.85;6.65;;;13.90;99.90;;;;;;5052666;28;20052;-72
2023/05/20 00:46:22;;;;;;;19.23;5.85;;;14.00;99.90;;;;;;5053669;28;20041;-72
2023/05/20 00:48:49;;;;;;;19.17;6.20;;;14.00;99.90;;;;;;5053320;28;20089;-72
2023/05/20 00:51:16;;;;;;;17.75;6.05;;;14.00;99.90;;;;;;5051880;28;20029;-72
2023/05/20 00:53:42;;;;;;;17.50;6.45;;;13.90;99.90;;;;;;5052551;28;20033;-72
2023/05/20 00:56:08;;;;;;;17.52;6.40;;;13.90;99.90;;;;;;5051298;28;20033;-72
2023/05/20 00:58:36;;;;;;;18.50;7.03;;;13.80;99.90;;;;;;5052177;28;20025;-72
2023/05/20 01:01:02;;;;;;;13.93;6.25;;;13.80;99.90;;;;;;5052382;28;20044;-72
2023/05/20 01:03:29;;;;;;;21.83;6.53;;;13.80;99.90;;;;;;5052783;28;20029;-74
2023/05/20 01:05:54;;;;;;;19.13;6.53;;;13.80;99.90;;;;;;5052113;28;20029;-73
2023/05/20 01:08:22;;;;;;;17.02;6.47;;;13.80;99.90;;;;;;5052417;28;20037;-73
2023/05/20 01:10:55;;;;;;;19.27;6.75;;;13.90;99.90;;;;;;5052480;28;20108;-73
2023/05/20 01:13:23;;;;;;;22.52;6.40;;;13.80;99.90;;;;;;5053193;28;20086;-73
2023/05/20 01:15:51;;;;;;;17.10;6.65;;;13.80;99.90;;;;;;5052824;28;20028;-73
2023/05/20 01:18:19;;;;;;;24.00;6.38;;;13.80;99.90;;;;;;5052993;28;20060;-73
2023/05/20 01:20:49;;;;;;;12.55;5.97;;;13.80;99.90;;;;;;5052046;28;20035;-73
2023/05/20 01:23:16;;;;;;;25.38;7.30;;;13.80;99.90;;;;;;5052610;28;20021;-73
2023/05/20 01:25:41;;;;;;;18.80;6.22;;;13.80;99.90;;;;;;5052018;28;20080;-76
2023/05/20 01:28:08;;;;;;;18.50;6.55;;;13.90;99.90;;;;;;5052934;28;20447;-71
2023/05/20 01:30:39;;;;;;;20.08;6.32;;;13.90;99.90;;;;;;5052460;28;20025;-71
2023/05/20 01:33:10;;;;;;;15.75;6.05;;;13.80;99.90;;;;;;5052124;28;20017;-71
2023/05/20 01:35:36;;;;;;;12.35;5.78;;;13.80;99.90;;;;;;5052232;28;20066;-71
2023/05/20 01:38:05;;;;;;;21.98;7.13;;;13.80;99.90;;;;;;5051943;28;20021;-71
2023/05/20 01:40:32;;;;;;;18.80;6.60;;;13.90;99.90;;;;;;5052096;28;20029;-71
2023/05/20 01:43:00;;;;;;;15.00;6.10;;;13.90;99.90;;;;;;5051825;28;20025;-71
2023/05/20 01:45:26;;;;;;;23.42;7.07;;;13.90;99.90;;;;;;5051749;28;20399;-71
2023/05/20 01:47:51;;;;;;;21.33;7.63;;;14.00;99.90;;;;;;5051162;28;20147;-71
2023/05/20 01:50:17;;;;;;;17.25;6.07;;;14.00;99.90;;;;;;5051787;28;20025;-71
2023/05/20 01:52:43;;;;;;;20.65;6.78;;;14.00;99.90;;;;;;5051465;28;20024;-74
2023/05/20 01:55:09;;;;;;;16.77;6.60;;;14.00;99.90;;;;;;5050483;28;20029;-71
2023/05/20 01:57:35;;;;;;;20.45;6.57;;;13.90;99.90;;;;;;5051786;28;20032;-73
2023/05/20 02:00:01;;;;;;;17.98;6.50;;;13.90;99.90;;;;;;5051542;28;20109;-73
2023/05/20 02:02:27;;;;;;;20.50;6.63;;;13.90;99.90;;;;;;5051735;28;20132;-73
2023/05/20 02:04:53;;;;;;;17.42;7.05;;;13.90;99.90;;;;;;5050776;28;20025;-73
2023/05/20 02:07:19;;;;;;;24.17;6.95;;;13.90;99.90;;;;;;5051711;28;20033;-71
2023/05/20 02:09:45;;;;;;;18.60;6.65;;;13.80;99.90;;;;;;5051016;28;20351;-76
2023/05/20 02:12:15;;;;;;;21.90;7.05;;;13.80;99.90;;;;;;5051579;28;20037;-72
2023/05/20 02:14:46;;;;;;;20.30;7.22;;;13.80;99.90;;;;;;5051475;28;20158;-73
2023/05/20 02:17:15;;;;;;;24.20;7.00;;;13.70;99.90;;;;;;5051647;28;20037;-73
2023/05/20 02:19:42;;;;;;;21.90;6.97;;;13.70;99.90;;;;;;5051492;28;20033;-73
2023/05/20 02:22:08;;;;;;;20.10;6.93;;;13.60;99.90;;;;;;5050561;28;20075;-73
2023/05/20 02:24:33;;;;;;;18.17;6.82;;;13.60;99.90;;;;;;5051165;28;20033;-73
2023/05/20 02:27:00;;;;;;;19.88;6.60;;;13.60;99.90;;;;;;5050888;28;20454;-73
2023/05/20 02:29:26;;;;;;;17.38;6.85;;;13.60;99.90;;;;;;5051242;28;20462;-73
2023/05/20 02:31:51;;;;;;;17.90;6.65;;;13.60;99.90;;;;;;5050364;28;20107;-73
2023/05/20 02:34:17;;;;;;;17.08;6.30;;;13.70;99.90;;;;;;5051145;28;20121;-72
2023/05/20 02:36:43;;;;;;;14.75;6.65;;;13.70;99.90;;;;;;5051159;28;20028;-73
2023/05/20 02:39:09;;;;;;;20.65;7.28;;;13.60;99.90;;;;;;5050902;28;20057;-73
2023/05/20 02:41:35;;;;;;;20.05;6.60;;;13.60;99.90;;;;;;5050456;28;20029;-73
2023/05/20 02:44:01;;;;;;;21.15;7.00;;;13.60;99.90;;;;;;5050463;28;20029;-73
2023/05/20 02:46:26;;;;;;;16.83;6.30;;;13.60;99.90;;;;;;5050237;28;20474;-73
2023/05/20 02:48:52;;;;;;;20.65;6.68;;;13.60;99.90;;;;;;5049562;28;20079;-73
2023/05/20 02:51:18;;;;;;;20.45;6.57;;;13.50;99.90;;;;;;5051035;28;20129;-72
2023/05/20 02:53:43;;;;;;;19.60;7.00;;;13.60;99.90;;;;;;5050485;28;20025;-73
2023/05/20 02:56:09;;;;;;;24.30;7.32;;;13.60;99.90;;;;;;5049878;28;20470;-73
2023/05/20 02:58:36;;;;;;;16.92;6.80;;;13.60;99.90;;;;;;5050622;28;20488;-73
2023/05/20 03:01:02;;;;;;;17.27;6.40;;;13.60;99.90;;;;;;5050183;28;20462;-73
2023/05/20 03:03:28;;;;;;;20.77;7.35;;;13.50;99.90;;;;;;5050362;28;20138;-73
2023/05/20 03:05:54;;;;;;;24.15;7.20;;;13.50;99.90;;;;;;5049961;28;20454;-73
2023/05/20 03:08:21;;;;;;;20.98;6.65;;;13.50;99.90;;;;;;5050195;28;20059;-73
2023/05/20 03:10:46;;;;;;;16.77;6.90;;;13.50;99.90;;;;;;5050345;28;20033;-75
2023/05/20 03:13:14;;;;;;;17.90;6.55;;;13.40;99.90;;;;;;5050064;28;20032;-71
2023/05/20 03:15:45;;;;;;;18.40;7.32;;;13.40;99.90;;;;;;5050302;28;20128;-71
2023/05/20 03:18:12;;;;;;;20.90;7.63;;;13.40;99.90;;;;;;5050152;28;20037;-71
2023/05/20 03:20:38;;;;;;;16.50;6.25;;;13.40;99.90;;;;;;5049929;28;20127;-72
2023/05/20 03:23:05;;;;;;;19.63;6.60;;;13.40;99.90;;;;;;5049556;28;20064;-72
2023/05/20 03:25:31;;;;;;;24.77;7.07;;;13.40;99.90;;;;;;5049918;28;20045;-72
2023/05/20 03:27:58;;;;;;;19.05;6.57;;;13.40;99.90;;;;;;5048182;28;20474;-72
2023/05/20 03:30:24;;;;;;;19.75;6.60;;;13.40;99.90;;;;;;5050420;28;20068;-72
2023/05/20 03:32:50;;;;;;;20.77;6.55;;;13.30;99.90;;;;;;5049430;28;20028;-75
2023/05/20 03:35:16;;;;;;;21.25;6.57;;;13.30;99.90;;;;;;5050200;28;20029;-72
2023/05/20 03:37:41;;;;;;;17.88;6.72;;;13.30;99.90;;;;;;5049901;28;20032;-72
2023/05/20 03:40:11;;;;;;;27.85;7.43;;;13.20;99.90;;;;;;5049495;28;20385;-72
2023/05/20 03:42:37;;;;;;;23.95;7.53;;;13.20;99.90;;;;;;5049678;28;20380;-73
2023/05/20 03:45:04;;;;;;;17.17;6.35;;;13.20;99.90;;;;;;5048853;28;20033;-72
2023/05/20 03:47:29;;;;;;;19.63;6.60;;;13.20;99.90;;;;;;5049660;28;20074;-72
2023/05/20 03:49:55;;;;;;;21.27;7.22;;;13.20;99.90;;;;;;5049115;28;20104;-72
2023/05/20 03:52:21;;;;;;;18.00;6.88;;;13.20;99.90;;;;;;5049425;28;20116;-71
2023/05/20 03:54:47;;;;;;;18.27;6.72;;;13.20;99.90;;;;;;5049305;28;20451;-71
2023/05/20 03:57:13;;;;;;;19.55;6.63;;;13.20;99.90;;;;;;5048706;28;20037;-71
2023/05/20 03:59:39;;;;;;;22.33;6.70;;;13.20;99.90;;;;;;5051624;28;20029;-72
2023/05/20 04:02:05;;;;;;;14.75;6.22;;;13.10;99.90;;;;;;5053205;28;20047;-71
2023/05/20 04:04:31;;;;;;;20.35;7.13;;;13.10;99.90;;;;;;5053517;28;20053;-71
2023/05/20 04:07:02;;;;;;;18.58;7.35;;;13.10;99.90;;;;;;5053129;28;20075;-71
2023/05/20 04:09:28;;;;;;;17.73;6.80;;;13.10;99.90;;;;;;5053929;28;20021;-71
2023/05/20 04:11:53;;;;;;;20.73;6.57;;;13.10;99.90;;;;;;5053433;28;20032;-72
2023/05/20 04:14:19;;;;;;;21.58;6.70;;;13.10;99.90;;;;;;5053558;28;20067;-72
2023/05/20 04:16:45;;;;;;;15.90;6.65;;;13.00;99.90;;;;;;5053908;28;20029;-71
2023/05/20 04:19:11;;;;;;;19.73;6.68;;;13.00;99.90;;;;;;5052902;28;20036;-71
2023/05/20 04:21:37;;;;;;;17.48;7.03;;;13.00;99.90;;;;;;5053676;28;20032;-71
2023/05/20 04:24:03;;;;;;;25.40;7.68;;;13.00;99.90;;;;;;5053061;28;20033;-72
2023/05/20 04:26:29;;;;;;;18.45;6.60;;;13.00;99.90;;;;;;5052898;28;20049;-72
2023/05/20 04:28:57;;;;;;;19.63;7.13;;;12.90;99.90;;;;;;5052601;28;20435;-73
2023/05/20 04:31:25;;;;;;;19.92;6.57;;;12.90;99.90;;;;;;5053579;28;20082;-72
2023/05/20 04:33:55;;;;;;;21.58;7.53;;;12.90;99.90;;;;;;5053074;28;20490;-72
2023/05/20 04:36:21;;;;;;;16.00;6.90;;;12.90;99.90;;;;;;5052193;28;20028;-72
2023/05/20 04:38:48;;;;;;;15.35;6.80;;;12.90;99.90;;;;;;5053257;28;20419;-71
2023/05/20 04:41:14;;;;;;;20.65;7.38;;;12.90;99.90;;;;;;5053021;28;20036;-72
2023/05/20 04:43:41;;;;;;;23.30;7.43;;;12.90;99.90;;;;;;5052984;28;20021;-72
2023/05/20 04:46:08;;;;;;;24.13;7.63;;;13.00;99.90;;;;;;5052176;28;20055;-71
2023/05/20 04:48:34;;;;;;;21.90;6.88;;;13.10;99.90;;;;;;5052520;28;20379;-72
2023/05/20 04:51:00;;;;;;;20.23;7.43;;;13.00;99.90;;;;;;5052347;28;20031;-73
2023/05/20 04:53:25;;;;;;;16.27;6.40;;;13.00;99.90;;;;;;5053280;28;20052;-72
2023/05/20 04:55:55;;;;;;;16.30;6.38;;;13.00;99.90;;;;;;5052764;28;20024;-72
2023/05/20 04:58:23;;;;;;;22.02;6.90;;;13.00;99.90;;;;;;5052999;28;20114;-72
2023/05/20 05:00:50;;;;;;;15.98;6.22;;;13.00;99.90;;;;;;5053216;28;20021;-72
2023/05/20 05:03:16;;;;;;;17.80;6.78;;;13.10;99.90;;;;;;5052432;28;20029;-72
2023/05/20 05:05:42;;;;;;;18.92;7.25;;;13.20;99.90;;;;;;5052398;28;20098;-72
2023/05/20 05:08:10;;;;;;;16.92;6.72;;;13.20;99.90;;;;;;5051732;28;20033;-73
2023/05/20 05:10:36;;;;;;;20.73;7.78;;;13.20;99.90;;;;;;5051532;28;20467;-72
2023/05/20 05:13:02;;;;;;;26.42;7.35;;;13.10;99.90;;;;;;5052158;28;20032;-72
2023/05/20 05:15:28;;;;;;;23.48;6.88;;;13.10;99.90;;;;;;5052747;28;20033;-72
2023/05/20 05:17:54;;;;;;;20.83;6.85;;;13.10;99.90;;;;;;5052276;28;20036;-73
2023/05/20 05:20:20;;;;;;;17.50;7.10;;;13.20;99.90;;;;;;5052493;28;20017;-72
2023/05/20 05:22:46;;;;;;;26.15;7.18;;;13.20;99.90;;;;;;5053148;28;20089;-72
2023/05/20 05:25:12;;;;;;;20.25;7.53;;;13.20;99.90;;;;;;5052030;28;20060;-72
2023/05/20 05:27:38;;;;;;;21.13;6.95;;;13.30;99.90;;;;;;5052343;28;20033;-71
2023/05/20 05:30:06;;;;;;;18.40;7.20;;;13.30;99.90;;;;;;5052290;28;20084;-72
2023/05/20 05:32:32;;;;;;;29.77;8.27;;;13.30;99.90;;;;;;5052758;28;20045;-72
2023/05/20 05:34:57;;;;;;;20.42;7.47;;;13.40;99.90;;;;;;5052003;28;20025;-74
2023/05/20 05:37:23;;;;;;;19.38;6.68;;;13.40;99.90;;;;;;5052360;28;20369;-72
2023/05/20 05:39:49;;;;;;;15.85;6.43;;;13.40;99.90;;;;;;5052321;28;20021;-72
2023/05/20 05:42:15;;;;;;;21.17;7.40;;;13.40;99.90;;;;;;5051795;28;20055;-72
2023/05/20 05:44:40;;;;;;;17.38;7.55;;;13.40;99.90;;;;;;5051883;28;20125;-73
2023/05/20 05:47:06;;;;;;;22.10;6.55;;;13.50;99.90;;;;;;5051659;28;20108;-72
2023/05/20 05:49:33;;;;;;;24.33;7.45;;;13.40;99.90;;;;;;5052361;28;20128;-73
2023/05/20 05:51:59;;;;;;;16.85;6.75;;;13.30;99.90;;;;;;5052118;28;20017;-75
2023/05/20 05:54:25;;;;;;;16.35;6.57;;;13.30;99.90;;;;;;5052490;28;20074;-73
2023/05/20 05:56:51;;;;;;;22.92;6.82;;;13.30;99.90;;;;;;5052199;28;20122;-72
2023/05/20 05:59:18;;;;;;;16.65;5.85;;;13.40;99.90;;;;;;5050899;28;20029;-73
2023/05/20 06:01:44;;;;;;;18.65;6.57;;;13.50;99.90;;;;;;5050406;28;20104;-73
2023/05/20 06:04:10;;;;;;;22.15;6.90;;;13.50;99.90;;;;;;5050841;28;20018;-73
2023/05/20 06:06:36;;;;;;;22.65;6.97;;;13.60;99.90;;;;;;5051520;28;20052;-72
2023/05/20 06:09:02;;;;;;;21.65;7.43;;;13.60;99.90;;;;;;5051213;28;20017;-73
2023/05/20 06:11:28;;;;;;;22.10;6.93;;;13.60;99.90;;;;;;5051642;28;20033;-73
2023/05/20 06:13:54;;;;;;;20.88;7.53;;;13.60;99.90;;;;;;5051209;28;20025;-72
2023/05/20 06:16:20;;;;;;;25.33;7.47;;;13.60;99.90;;;;;;5051279;28;20040;-70
2023/05/20 06:18:46;;;;;;;25.00;7.03;;;13.60;99.90;;;;;;5051618;28;20028;-73
2023/05/20 06:21:11;;;;;;;21.85;6.43;;;13.60;99.90;;;;;;5051085;28;20083;-72
2023/05/20 06:23:37;;;;;;;18.23;6.53;;;13.50;99.90;;;;;;5051300;28;20344;-73
2023/05/20 06:26:03;;;;;;;19.85;6.57;;;13.50;99.90;;;;;;5050404;28;20073;-73
2023/05/20 06:28:29;;;;;;;20.30;6.30;;;13.50;99.90;;;;;;5051696;28;20036;-73
2023/05/20 06:30:56;;;;;;;19.98;6.50;;;13.50;99.90;;;;;;5051323;28;20044;-73
2023/05/20 06:33:27;;;;;;;20.65;6.60;;;13.60;99.90;;;;;;5050711;28;20729;-73
2023/05/20 06:35:54;;;;;;;17.38;6.32;;;13.50;99.90;;;;;;5051285;28;20102;-74
2023/05/20 06:38:19;;;;;;;19.25;7.00;;;13.60;99.90;;;;;;5050672;28;20174;-73
2023/05/20 06:40:47;;;;;;;17.05;5.85;;;13.70;99.90;;;;;;5051181;28;20462;-73
2023/05/20 06:43:13;;;;;;;21.02;6.90;;;13.70;99.90;;;;;;5050514;28;20415;-73
2023/05/20 06:45:39;;;;;;;16.88;5.82;;;13.80;99.90;;;;;;5050636;28;20110;-73
2023/05/20 06:48:05;;;;;;;20.90;6.28;;;13.80;99.90;;;;;;5050392;28;20065;-74
2023/05/20 06:50:31;;;;;;;17.70;6.00;;;13.90;99.90;;;;;;5050207;28;20064;-72
2023/05/20 06:52:56;;;;;;;16.70;5.57;;;13.90;99.90;;;;;;5050410;28;20483;-72
2023/05/20 06:55:22;;;;;;;15.05;5.50;;;13.90;99.90;;;;;;5049988;28;20028;-72
2023/05/20 06:57:48;;;;;;;19.77;5.85;;;14.00;99.90;;;;;;5050645;28;20033;-72
2023/05/20 07:00:13;;;;;;;18.73;6.05;;;14.00;99.90;;;;;;5049844;28;20100;-71
2023/05/20 07:02:39;;;;;;;21.92;6.40;;;14.00;99.90;;;;;;5050523;28;20315;-72
2023/05/20 07:05:06;;;;;;;14.13;5.65;;;14.00;99.90;;;;;;5049917;28;20029;-73
2023/05/20 07:07:31;;;;;;;14.07;5.32;;;14.10;99.90;;;;;;5050235;28;20041;-72
2023/05/20 07:09:57;;;;;;;17.63;5.75;;;14.10;99.90;;;;;;5050796;28;20036;-73
2023/05/20 07:12:23;;;;;;;16.92;5.18;;;14.10;99.90;;;;;;5049497;28;20025;-72
2023/05/20 07:14:49;;;;;;;16.52;5.22;;;14.00;99.90;;;;;;5050197;28;20112;-73
2023/05/20 07:17:15;;;;;;;16.98;4.82;;;14.10;99.90;;;;;;5050032;28;20485;-72
2023/05/20 07:19:41;;;;;;;13.98;4.60;;;14.00;99.90;;;;;;5050592;28;20127;-72
2023/05/20 07:22:06;;;;;;;15.35;4.50;;;14.00;99.90;;;;;;5050371;28;20105;-73
2023/05/20 07:24:32;;;;;;;15.30;4.97;;;14.10;99.90;;;;;;5049744;28;20077;-72
2023/05/20 07:26:58;;;;;;;15.98;5.15;;;14.20;99.90;;;;;;5050377;28;20116;-72
2023/05/20 07:29:24;;;;;;;13.15;4.25;;;14.10;99.90;;;;;;5049794;28;20021;-72
2023/05/20 07:31:49;;;;;;;11.80;4.75;;;14.10;99.90;;;;;;5050628;28;20419;-72
2023/05/20 07:34:15;;;;;;;14.32;4.63;;;14.20;99.90;;;;;;5049169;28;20035;-72
2023/05/20 07:36:42;;;;;;;11.73;4.40;;;14.20;99.90;;;;;;5049382;28;20386;-71
2023/05/20 07:39:09;;;;;;;13.77;4.15;;;14.20;99.90;;;;;;5048950;28;20035;-73
2023/05/20 07:41:35;;;;;;;11.98;4.70;;;14.30;99.90;;;;;;5047299;28;20040;-71
2023/05/20 07:44:03;;;;;;;15.68;5.00;;;14.30;99.90;;;;;;5049711;28;20098;-72
2023/05/20 07:46:29;;;;;;;16.92;4.72;;;14.30;99.90;;;;;;5049293;28;20017;-72
2023/05/20 07:48:55;;;;;;;13.63;5.07;;;14.30;99.90;;;;;;5050132;28;20023;-73
2023/05/20 07:51:21;;;;;;;15.85;4.72;;;14.40;99.90;;;;;;5049717;28;20037;-72
2023/05/20 07:53:47;;;;;;;15.43;5.25;;;14.40;99.90;;;;;;5050585;28;20461;-72
2023/05/20 07:56:12;;;;;;;13.48;4.95;;;14.40;99.90;;;;;;5049718;28;20123;-73
2023/05/20 07:58:41;;;;;;;15.90;5.15;;;14.40;99.90;;;;;;5048679;28;20021;-72
2023/05/20 08:01:08;;;;;;;20.48;5.15;;;14.40;99.90;;;;;;5049719;28;20021;-74
2023/05/20 08:03:35;;;;;;;14.02;4.85;;;14.40;99.90;;;;;;5050112;28;20079;-72
2023/05/20 08:06:01;;;;;;;11.85;4.80;;;14.50;99.90;;;;;;5049525;28;20025;-72
2023/05/20 08:08:29;;;;;;;9.93;3.88;;;14.50;99.90;;;;;;5048946;28;20033;-72
2023/05/20 08:10:55;;;;;;;19.27;5.75;;;14.60;99.90;;;;;;5049818;28;20162;-72
2023/05/20 08:13:21;;;;;;;14.65;5.15;;;14.60;99.90;;;;;;5049415;28;20082;-73
2023/05/20 08:15:47;;;;;;;14.57;4.53;;;14.60;99.90;;;;;;5049500;28;20417;-73
2023/05/20 08:18:14;;;;;;;13.00;4.45;;;14.60;99.90;;;;;;5049451;28;20033;-73
2023/05/20 08:20:41;;;;;;;18.25;5.05;;;14.60;99.90;;;;;;5049938;28;20116;-73
2023/05/20 08:23:07;;;;;;;14.95;5.20;;;14.70;99.90;;;;;;5048493;28;20037;-74
2023/05/20 08:25:32;;;;;;;13.85;4.78;;;14.80;99.90;;;;;;5049258;28;20045;-72
2023/05/20 08:28:02;;;;;;;14.68;4.97;;;14.90;99.90;;;;;;5049643;28;20068;-72
2023/05/20 08:30:29;;;;;;;15.65;4.55;;;14.90;99.90;;;;;;5049358;28;20020;-74
2023/05/20 08:32:55;;;;;;;13.80;5.25;;;15.00;99.90;;;;;;5049914;28;20033;-74
2023/05/20 08:35:21;;;;;;;11.60;4.93;;;15.00;99.90;;;;;;5049194;28;20033;-73
2023/05/20 08:37:47;;;;;;;13.32;4.85;;;15.10;99.90;;;;;;5049936;28;20112;-73
2023/05/20 08:40:13;;;;;;;15.35;5.75;;;15.00;99.90;;;;;;5048965;28;20053;-73
2023/05/20 08:42:43;;;;;;;17.52;5.60;;;15.10;99.90;;;;;;5049805;28;20450;-73
2023/05/20 08:45:11;;;;;;;15.82;6.18;;;15.00;99.90;;;;;;5049020;28;20033;-74
2023/05/20 08:47:44;;;;;;;18.05;5.60;;;15.10;99.90;;;;;;5052887;28;20106;-73
2023/05/20 08:50:11;;;;;;;14.77;5.47;;;15.10;99.90;;;;;;5052935;28;20032;-75
2023/05/20 08:52:43;;;;;;;13.13;5.25;;;15.00;99.90;;;;;;5052997;28;20028;-73
2023/05/20 08:55:14;;;;;;;13.02;5.35;;;15.10;99.90;;;;;;5053042;28;20083;-75
2023/05/20 08:57:40;;;;;;;13.55;5.45;;;15.10;99.90;;;;;;5053230;28;20107;-73
2023/05/20 09:00:12;;;;;;;16.92;5.53;;;15.10;99.90;;;;;;5053408;28;20025;-72
2023/05/20 09:02:38;;;;;;;15.65;5.85;;;15.20;99.90;;;;;;5053250;28;20056;-73
2023/05/20 09:05:05;;;;;;;15.85;6.13;;;15.20;99.90;;;;;;5053294;28;20563;-73
2023/05/20 09:07:31;;;;;;;15.65;6.70;;;15.20;99.90;;;;;;5052768;28;20047;-74
2023/05/20 09:09:57;;;;;;;16.92;6.00;;;15.20;99.90;;;;;;5053034;28;20036;-73
2023/05/20 09:12:23;;;;;;;16.02;6.07;;;15.20;99.90;;;;;;5052861;28;20048;-73
2023/05/20 09:14:49;;;;;;;18.70;5.57;;;15.20;99.90;;;;;;5053304;28;20327;-74
2023/05/20 09:17:16;;;;;;;14.70;5.30;;;15.30;99.90;;;;;;5052402;28;20320;-74
2023/05/20 09:19:42;;;;;;;18.38;5.40;;;15.30;99.90;;;;;;5052948;28;20063;-73
2023/05/20 09:22:08;;;;;;;15.60;5.80;;;15.30;99.90;;;;;;5052737;28;20419;-72
2023/05/20 09:24:34;;;;;;;17.33;5.25;;;15.30;99.90;;;;;;5052455;28;20327;-72
2023/05/20 09:26:59;;;;;;;15.90;5.50;;;15.20;99.90;;;;;;5053041;28;20557;-72
2023/05/20 09:29:25;;;;;;;15.77;5.32;;;15.30;99.90;;;;;;5052361;28;20036;-73
2023/05/20 09:31:52;;;;;;;17.00;5.55;;;15.30;99.90;;;;;;5052187;28;20032;-73
2023/05/20 09:34:19;;;;;;;19.13;5.68;;;15.30;99.90;;;;;;5051880;28;20461;-73
2023/05/20 09:36:49;;;;;;;15.35;5.80;;;15.30;99.90;;;;;;5052313;28;20037;-72
2023/05/20 09:39:18;;;;;;;17.92;5.90;;;15.40;99.90;;;;;;5052101;28;20025;-74
2023/05/20 09:42:01;;;;;;;16.65;5.63;;;15.40;99.90;;;;;;5052123;28;20481;-72
2023/05/20 09:44:28;;;;;;;14.73;5.63;;;15.20;99.90;;;;;;5051901;28;20025;-73
2023/05/20 09:46:55;;;;;;;16.80;5.88;;;15.30;99.90;;;;;;5051975;28;20065;-73
2023/05/20 09:49:22;;;;;;;15.65;6.43;;;15.30;99.90;;;;;;5050592;28;20047;-73
2023/05/20 09:51:49;;;;;;;15.20;5.63;;;15.40;99.90;;;;;;5052425;28;20443;-73
2023/05/20 09:54:18;;;;;;;15.48;5.55;;;15.50;99.90;;;;;;5051471;28;20362;-75
2023/05/20 09:56:45;;;;;;;18.17;5.50;;;15.50;99.90;;;;;;5051784;28;20434;-73
2023/05/20 09:59:15;;;;;;;15.45;6.00;;;15.50;99.90;;;;;;5050994;28;20120;-73
2023/05/20 10:01:41;;;;;;;18.67;4.93;;;15.50;99.90;;;;;;5051927;28;20081;-72
2023/05/20 10:04:09;;;;;;;20.55;5.43;;;15.50;99.90;;;;;;5051391;28;20452;-73
2023/05/20 10:06:40;;;;;;;20.58;5.57;;;15.60;99.90;;;;;;5050634;28;20185;-73
2023/05/20 10:09:36;;;;;;;16.60;5.67;;;15.60;99.90;;;;;;5052054;28;20037;-73
2023/05/20 10:12:38;;;;;;;18.33;5.60;;;15.70;99.90;;;;;;5051427;28;20067;-73
2023/05/20 10:15:27;;;;;;;21.52;5.82;;;15.70;99.90;;;;;;5009212;28;20460;-72
2023/05/20 10:17:52;;;;;;;18.80;5.50;;;15.70;99.90;;;;;;5049174;28;20036;-72
2023/05/20 10:20:18;;;;;;;22.27;6.60;;;15.70;99.90;;;;;;5050994;28;20391;-72
2023/05/20 10:22:55;;;;;;;14.98;5.75;;;15.80;99.90;;;;;;5050219;28;20029;-73
2023/05/20 10:25:27;;;;;;;15.57;5.53;;;15.90;99.90;;;;;;5051325;28;20048;-73
2023/05/20 10:28:06;;;;;;;18.73;5.97;;;16.00;99.90;;;;;;5051426;28;20480;-73
2023/05/20 10:30:32;;;;;;;14.55;5.55;;;16.00;99.90;;;;;;5051051;28;20116;-73
2023/05/20 10:33:04;;;;;;;18.58;6.35;;;16.00;99.90;;;;;;5051675;28;20104;-72
2023/05/20 10:35:30;;;;;;;18.55;5.68;;;15.90;99.90;;;;;;5050465;28;20025;-73
2023/05/20 10:38:16;;;;;;;18.88;6.93;;;16.00;99.90;;;;;;5051335;28;20086;-73
2023/05/20 10:40:42;;;;;;;18.73;5.93;;;16.00;99.90;;;;;;5049536;28;20428;-73
2023/05/20 10:43:12;;;;;;;17.35;5.90;;;16.00;99.90;;;;;;5051214;28;20025;-72
2023/05/20 10:45:52;;;;;;;14.40;5.93;;;16.10;99.90;;;;;;5050247;28;20465;-73
2023/05/20 10:48:31;;;;;;;18.50;6.10;;;16.10;99.90;;;;;;5050401;28;20525;-76
2023/05/20 10:51:04;;;;;;;18.15;5.85;;;16.00;99.90;;;;;;5051289;28;20070;-73
2023/05/20 10:53:38;;;;;;;20.33;6.10;;;16.10;99.90;;;;;;5050291;28;20109;-73
2023/05/20 10:56:05;;;;;;;19.73;6.03;;;16.30;99.90;;;;;;5051385;28;20070;-73
2023/05/20 10:58:38;;;;;;;20.23;6.22;;;16.40;99.90;;;;;;5050196;28;20032;-73
2023/05/20 11:01:04;;;;;;;18.63;5.68;;;16.40;99.90;;;;;;5050872;28;20097;-73
2023/05/20 11:03:30;;;;;;;21.52;6.75;;;16.50;99.90;;;;;;5050377;28;20028;-73
2023/05/20 11:05:56;;;;;;;17.95;5.40;;;16.50;99.90;;;;;;5051112;28;20331;-73
2023/05/20 11:08:26;;;;;;;20.90;6.43;;;16.60;99.90;;;;;;5049417;28;20036;-73
2023/05/20 11:10:52;;;;;;;19.88;6.60;;;16.40;99.90;;;;;;5050612;28;20366;-73
2023/05/20 11:13:17;;;;;;;19.55;7.03;;;16.40;99.90;;;;;;5050325;28;20099;-75
2023/05/20 11:15:43;;;;;;;21.73;6.63;;;16.40;99.90;;;;;;5050268;28;20109;-73
2023/05/20 11:18:11;;;;;;;17.15;5.70;;;16.30;99.90;;;;;;5050533;28;20025;-73
2023/05/20 11:20:37;;;;;;;18.80;6.10;;;16.40;99.90;;;;;;5050051;28;20047;-73
2023/05/20 11:23:05;;;;;;;16.60;6.63;;;16.40;99.90;;;;;;5048935;28;20025;-73
2023/05/20 11:25:32;;;;;;;16.95;6.30;;;16.50;99.90;;;;;;5049634;28;20053;-73
2023/05/20 11:27:59;;;;;;;20.92;6.60;;;16.50;99.90;;;;;;5049762;28;20485;-73
2023/05/20 11:30:25;;;;;;;18.23;6.05;;;16.50;99.90;;;;;;5049285;28;20025;-73
2023/05/20 11:33:02;;;;;;;19.50;5.80;;;16.40;99.90;;;;;;5050156;28;20454;-73
2023/05/20 11:35:31;;;;;;;19.83;5.65;;;16.30;99.90;;;;;;5049718;28;20028;-73
2023/05/20 11:38:05;;;;;;;19.20;6.60;;;16.20;99.90;;;;;;5050508;28;20441;-72
2023/05/20 11:40:32;;;;;;;21.83;6.65;;;16.30;99.90;;;;;;5050235;28;20103;-72
2023/05/20 11:43:02;;;;;;;17.52;6.53;;;16.30;99.90;;;;;;5050119;28;20021;-72
2023/05/20 11:45:45;;;;;;;17.63;5.80;;;16.40;99.90;;;;;;5049942;28;20462;-73
2023/05/20 11:48:11;;;;;;;13.27;5.45;;;16.40;99.90;;;;;;5050056;28;20071;-72
2023/05/20 11:50:39;;;;;;;23.92;6.25;;;16.50;99.90;;;;;;5050173;28;20021;-73
2023/05/20 11:53:24;;;;;;;19.10;5.68;;;16.60;99.90;;;;;;5049501;28;20036;-72
2023/05/20 11:55:53;;;;;;;23.63;7.25;;;16.70;99.90;;;;;;5051706;28;20032;-72
2023/05/20 11:58:21;;;;;;;20.50;6.18;;;16.90;99.90;;;;;;5049708;28;20036;-72
2023/05/20 12:00:47;;;;;;;15.93;5.85;;;16.90;99.90;;;;;;5050919;28;20485;-72
2023/05/20 12:03:12;;;;;;;22.73;6.25;;;17.00;99.90;;;;;;5049107;28;20021;-72
2023/05/20 12:05:39;;;;;;;21.23;6.38;;;17.00;99.90;;;;;;5048797;28;20025;-73
2023/05/20 12:08:05;;;;;;;18.25;6.07;;;17.20;99.90;;;;;;5048999;28;20029;-73
2023/05/20 12:10:31;;;;;;;15.25;5.55;;;17.20;99.90;;;;;;5048788;28;20065;-73
2023/05/20 12:12:58;;;;;;;18.83;6.35;;;17.30;99.90;;;;;;5049395;28;20484;-72
2023/05/20 12:15:24;;;;;;;14.18;5.57;;;17.30;99.90;;;;;;5048703;28;20033;-76
2023/05/20 12:17:52;;;;;;;19.92;6.40;;;17.20;99.90;;;;;;5049971;28;20490;-72
2023/05/20 12:20:21;;;;;;;18.58;6.38;;;17.30;99.90;;;;;;5051243;28;20072;-73
2023/05/20 12:22:48;;;;;;;35.40;7.18;;;17.20;99.90;;;;;;5052988;28;20028;-74
2023/05/20 12:25:18;;;;;;;15.15;5.80;;;17.20;99.90;;;;;;5053135;28;20115;-74
2023/05/20 12:27:46;;;;;;;24.48;7.47;;;17.10;99.90;;;;;;5052600;28;20482;-73
2023/05/20 12:30:15;;;;;;;21.25;6.55;;;17.20;99.90;;;;;;5053260;28;20041;-74
2023/05/20 12:32:42;;;;;;;15.27;6.13;;;17.30;99.90;;;;;;5051088;28;20813;-74
2023/05/20 12:35:08;;;;;;;19.25;6.25;;;17.30;99.90;;;;;;5053030;28;20460;-72